createdAt,value
2023-05-15T00:00:48.227Z,37.41
2023-05-15T00:01:48.213Z,37.38
2023-05-15T00:02:48.272Z,37.42
2023-05-15T00:03:48.251Z,37.40
2023-05-15T00:04:48.232Z,37.36
2023-05-15T00:05:48.213Z,37.38
2023-05-15T00:06:48.187Z,37.36
2023-05-15T00:07:48.170Z,37.32
2023-05-15T00:08:48.163Z,37.30
2023-05-15T00:09:48.204Z,37.27
2023-05-15T00:11:00.775Z,37.28
2023-05-15T00:11:48.281Z,37.27
2023-05-15T00:12:48.238Z,37.25
2023-05-15T00:13:48.238Z,37.21
2023-05-15T00:14:48.245Z,37.21
2023-05-15T00:15:48.238Z,37.21
2023-05-15T00:16:48.218Z,37.10
2023-05-15T00:17:48.288Z,37.13
2023-05-15T00:18:48.326Z,37.14
2023-05-15T00:19:48.202Z,37.09
2023-05-15T00:20:48.191Z,37.09
2023-05-15T00:21:48.186Z,37.08
2023-05-15T00:22:48.180Z,37.08
2023-05-15T00:23:48.172Z,37.06
2023-05-15T00:24:48.160Z,37.05
2023-05-15T00:25:48.182Z,37.02
2023-05-15T00:26:48.166Z,37.03
2023-05-15T00:27:48.175Z,37.00
2023-05-15T00:28:48.145Z,36.98
2023-05-15T00:29:48.132Z,36.96
2023-05-15T00:30:48.125Z,36.95
2023-05-15T00:31:48.162Z,36.92
2023-05-15T00:32:48.155Z,36.95
2023-05-15T00:33:48.100Z,36.95
2023-05-15T00:34:48.157Z,36.92
2023-05-15T00:35:48.087Z,36.91
2023-05-15T00:36:48.086Z,36.89
2023-05-15T00:37:48.128Z,36.96
2023-05-15T00:38:48.196Z,36.92
2023-05-15T00:39:48.259Z,36.92
2023-05-15T00:40:48.290Z,36.90
2023-05-15T00:41:48.355Z,36.93
2023-05-15T00:42:48.404Z,36.89
2023-05-15T00:43:48.493Z,36.88
2023-05-15T00:44:48.510Z,36.91
2023-05-15T00:45:48.572Z,36.88
2023-05-15T00:46:48.658Z,36.88
2023-05-15T00:47:48.679Z,36.90
2023-05-15T00:48:48.737Z,36.87
2023-05-15T00:49:48.795Z,36.90
2023-05-15T00:50:48.858Z,36.89
2023-05-15T00:51:48.919Z,36.87
2023-05-15T00:52:48.965Z,36.89
2023-05-15T00:53:49.070Z,36.85
2023-05-15T00:54:49.127Z,36.85
2023-05-15T00:55:49.136Z,36.89
2023-05-15T00:56:49.196Z,36.87
2023-05-15T00:57:49.243Z,36.88
2023-05-15T00:58:49.298Z,36.84
2023-05-15T00:59:49.386Z,36.88
2023-05-15T01:00:49.441Z,36.86
2023-05-15T01:01:49.464Z,36.88
2023-05-15T01:02:49.643Z,36.84
2023-05-15T01:03:49.592Z,36.84
2023-05-15T01:04:49.636Z,36.87
2023-05-15T01:05:49.693Z,36.85
2023-05-15T01:06:49.747Z,36.88
2023-05-15T01:07:49.799Z,36.83
2023-05-15T01:08:49.838Z,36.88
2023-05-15T01:09:49.898Z,36.86
2023-05-15T01:10:49.948Z,36.88
2023-05-15T01:11:50.009Z,36.85
2023-05-15T01:12:50.064Z,36.84
2023-05-15T01:13:50.105Z,36.85
2023-05-15T01:14:50.156Z,36.84
2023-05-15T01:15:50.250Z,36.85
2023-05-15T01:16:50.280Z,36.85
2023-05-15T01:17:50.365Z,36.90
2023-05-15T01:18:50.438Z,36.89
2023-05-15T01:19:50.650Z,36.84
2023-05-15T01:20:50.483Z,36.85
2023-05-15T01:21:50.530Z,36.85
2023-05-15T01:22:50.585Z,36.85
2023-05-15T01:23:50.630Z,36.84
2023-05-15T01:24:50.692Z,36.84
2023-05-15T01:25:50.752Z,36.88
2023-05-15T01:26:50.812Z,36.83
2023-05-15T01:27:50.877Z,36.84
2023-05-15T01:28:50.917Z,36.83
2023-05-15T01:29:50.967Z,36.84
2023-05-15T01:30:51.033Z,36.82
2023-05-15T01:31:51.153Z,36.81
2023-05-15T01:32:51.202Z,36.80
2023-05-15T01:33:51.194Z,36.83
2023-05-15T01:34:51.242Z,36.78
2023-05-15T01:35:51.311Z,36.79
2023-05-15T01:36:51.354Z,36.80
2023-05-15T01:37:51.409Z,36.87
2023-05-15T01:38:51.477Z,36.79
2023-05-15T01:39:51.526Z,36.78
2023-05-15T01:40:51.596Z,36.82
2023-05-15T01:41:51.643Z,36.81
2023-05-15T01:42:51.701Z,36.83
2023-05-15T01:43:51.760Z,36.83
2023-05-15T01:44:51.807Z,36.84
2023-05-15T01:45:51.913Z,36.75
2023-05-15T01:46:51.957Z,36.79
2023-05-15T01:47:52.099Z,36.83
2023-05-15T01:48:52.022Z,36.75
2023-05-15T01:49:52.068Z,36.79
2023-05-15T01:50:52.128Z,36.79
2023-05-15T01:51:52.188Z,36.78
2023-05-15T01:52:52.229Z,36.78
2023-05-15T01:53:52.298Z,36.79
2023-05-15T01:54:52.352Z,36.80
2023-05-15T01:55:52.439Z,36.81
2023-05-15T01:56:52.463Z,36.78
2023-05-15T01:57:52.519Z,36.79
2023-05-15T01:58:52.575Z,36.77
2023-05-15T01:59:52.626Z,36.79
2023-05-15T02:00:52.698Z,36.81
2023-05-15T02:01:52.823Z,36.79
2023-05-15T02:02:52.859Z,36.73
2023-05-15T02:03:53.026Z,36.81
2023-05-15T02:04:52.927Z,36.76
2023-05-15T02:05:52.978Z,36.78
2023-05-15T02:06:53.031Z,36.75
2023-05-15T02:07:53.131Z,36.80
2023-05-15T02:08:53.161Z,36.76
2023-05-15T02:09:53.210Z,36.78
2023-05-15T02:10:53.296Z,36.73
2023-05-15T02:11:53.353Z,36.75
2023-05-15T02:12:53.366Z,36.75
2023-05-15T02:13:53.421Z,36.80
2023-05-15T02:14:53.485Z,36.75
2023-05-15T02:15:53.549Z,36.77
2023-05-15T02:16:53.604Z,36.74
2023-05-15T02:17:53.693Z,36.79
2023-05-15T02:18:53.764Z,36.75
2023-05-15T02:19:53.794Z,36.79
2023-05-15T02:20:53.813Z,36.73
2023-05-15T02:21:53.889Z,36.74
2023-05-15T02:22:53.933Z,36.76
2023-05-15T02:23:53.986Z,36.74
2023-05-15T02:24:54.048Z,36.79
2023-05-15T02:25:54.107Z,36.75
2023-05-15T02:26:54.178Z,36.75
2023-05-15T02:27:54.218Z,36.76
2023-05-15T02:28:54.283Z,36.73
2023-05-15T02:29:54.337Z,36.80
2023-05-15T02:30:54.397Z,36.79
2023-05-15T02:31:54.477Z,36.75
2023-05-15T02:32:54.566Z,36.77
2023-05-15T02:33:54.577Z,36.75
2023-05-15T02:34:54.647Z,36.76
2023-05-15T02:35:54.728Z,36.78
2023-05-15T02:36:54.792Z,36.74
2023-05-15T02:37:54.816Z,36.75
2023-05-15T02:38:54.877Z,36.75
2023-05-15T02:39:54.924Z,36.76
2023-05-15T02:40:54.991Z,36.74
2023-05-15T02:41:55.036Z,36.78
2023-05-15T02:42:55.111Z,36.74
2023-05-15T02:43:55.174Z,36.79
2023-05-15T02:44:55.227Z,36.79
2023-05-15T02:45:55.309Z,36.75
2023-05-15T02:46:55.340Z,36.73
2023-05-15T02:47:55.433Z,36.77
2023-05-15T02:48:55.462Z,36.77
2023-05-15T02:49:55.518Z,36.76
2023-05-15T02:50:55.588Z,36.78
2023-05-15T02:51:55.661Z,36.78
2023-05-15T02:52:55.689Z,36.71
2023-05-15T02:53:55.759Z,36.76
2023-05-15T02:54:55.812Z,36.77
2023-05-15T02:55:55.879Z,36.76
2023-05-15T02:56:55.953Z,36.76
2023-05-15T02:57:55.999Z,36.79
2023-05-15T02:58:56.065Z,36.74
2023-05-15T02:59:56.114Z,36.75
2023-05-15T03:00:56.217Z,36.76
2023-05-15T03:01:56.255Z,36.76
2023-05-15T03:02:56.405Z,36.77
2023-05-15T03:03:56.418Z,36.76
2023-05-15T03:04:56.435Z,36.72
2023-05-15T03:05:56.506Z,36.73
2023-05-15T03:06:56.566Z,36.80
2023-05-15T03:07:56.664Z,36.79
2023-05-15T03:08:56.691Z,36.74
2023-05-15T03:09:56.745Z,36.71
2023-05-15T03:10:56.806Z,36.76
2023-05-15T03:11:56.876Z,36.80
2023-05-15T03:12:56.928Z,36.76
2023-05-15T03:13:57.097Z,36.74
2023-05-15T03:14:57.050Z,36.71
2023-05-15T03:15:57.115Z,36.76
2023-05-15T03:16:57.213Z,36.76
2023-05-15T03:17:57.302Z,36.71
2023-05-15T03:18:57.358Z,36.77
2023-05-15T03:19:57.370Z,36.76
2023-05-15T03:20:57.432Z,36.74
2023-05-15T03:21:57.490Z,36.72
2023-05-15T03:22:57.548Z,36.74
2023-05-15T03:23:57.642Z,36.78
2023-05-15T03:24:57.675Z,36.76
2023-05-15T03:25:57.748Z,36.76
2023-05-15T03:26:57.800Z,36.75
2023-05-15T03:27:57.869Z,36.75
2023-05-15T03:28:57.929Z,36.74
2023-05-15T03:29:57.970Z,36.72
2023-05-15T03:30:58.088Z,36.71
2023-05-15T03:31:58.176Z,36.76
2023-05-15T03:32:58.205Z,36.76
2023-05-15T03:33:58.237Z,36.74
2023-05-15T03:34:58.292Z,36.72
2023-05-15T03:35:58.340Z,36.72
2023-05-15T03:36:58.405Z,36.71
2023-05-15T03:37:58.495Z,36.76
2023-05-15T03:38:58.533Z,36.69
2023-05-15T03:39:58.617Z,36.72
2023-05-15T03:40:58.642Z,36.75
2023-05-15T03:41:58.709Z,36.74
2023-05-15T03:42:58.767Z,36.72
2023-05-15T03:43:58.827Z,36.72
2023-05-15T03:44:58.881Z,36.72
2023-05-15T03:45:58.950Z,36.72
2023-05-15T03:46:59.109Z,36.73
2023-05-15T03:47:59.126Z,36.69
2023-05-15T03:48:59.141Z,36.70
2023-05-15T03:49:59.215Z,36.74
2023-05-15T03:50:59.266Z,36.74
2023-05-15T03:51:59.321Z,36.73
2023-05-15T03:52:59.393Z,36.71
2023-05-15T03:53:59.450Z,36.75
2023-05-15T03:54:59.512Z,36.72
2023-05-15T03:55:59.588Z,36.72
2023-05-15T03:56:59.632Z,36.71
2023-05-15T03:57:59.692Z,36.74
2023-05-15T03:58:59.751Z,36.74
2023-05-15T03:59:59.798Z,36.71
2023-05-15T04:00:59.871Z,36.74
2023-05-15T04:02:05.087Z,36.72
2023-05-15T04:03:00.008Z,36.76
2023-05-15T04:03:59.922Z,36.73
2023-05-15T04:04:59.918Z,36.71
2023-05-15T04:05:59.904Z,36.70
2023-05-15T04:06:59.892Z,36.74
2023-05-15T04:07:59.890Z,36.74
2023-05-15T04:08:59.881Z,36.72
2023-05-15T04:09:59.877Z,36.71
2023-05-15T04:10:59.880Z,36.70
2023-05-15T04:11:59.904Z,36.72
2023-05-15T04:12:59.860Z,36.73
2023-05-15T04:13:59.857Z,36.69
2023-05-15T04:14:59.849Z,36.71
2023-05-15T04:15:59.893Z,36.73
2023-05-15T04:16:59.818Z,36.74
2023-05-15T04:17:59.854Z,36.74
2023-05-15T04:18:59.840Z,36.73
2023-05-15T04:19:59.796Z,36.78
2023-05-15T04:20:59.792Z,36.72
2023-05-15T04:21:59.808Z,36.74
2023-05-15T04:22:59.795Z,36.71
2023-05-15T04:23:59.782Z,36.72
2023-05-15T04:24:59.853Z,36.69
2023-05-15T04:25:59.904Z,36.70
2023-05-15T04:27:00.000Z,36.72
2023-05-15T04:28:00.063Z,36.73
2023-05-15T04:29:04.124Z,36.66
2023-05-15T04:30:00.195Z,36.69
2023-05-15T04:31:00.246Z,36.71
2023-05-15T04:32:00.414Z,36.71
2023-05-15T04:33:00.363Z,36.69
2023-05-15T04:34:00.377Z,36.71
2023-05-15T04:35:00.438Z,36.67
2023-05-15T04:36:00.523Z,36.72
2023-05-15T04:37:00.573Z,36.72
2023-05-15T04:38:00.633Z,36.73
2023-05-15T04:39:00.688Z,36.69
2023-05-15T04:40:00.779Z,36.71
2023-05-15T04:41:00.820Z,36.74
2023-05-15T04:42:00.913Z,36.74
2023-05-15T04:43:00.953Z,36.70
2023-05-15T04:44:01.059Z,36.73
2023-05-15T04:45:01.074Z,36.71
2023-05-15T04:46:01.163Z,36.73
2023-05-15T04:47:01.176Z,36.69
2023-05-15T04:48:01.288Z,36.69
2023-05-15T04:49:01.292Z,36.68
2023-05-15T04:50:01.387Z,36.67
2023-05-15T04:51:01.443Z,36.76
2023-05-15T04:52:01.475Z,36.66
2023-05-15T04:53:01.532Z,36.68
2023-05-15T04:54:01.578Z,36.67
2023-05-15T04:55:01.668Z,36.68
2023-05-15T04:56:01.704Z,36.67
2023-05-15T04:57:01.767Z,36.69
2023-05-15T04:58:01.816Z,36.72
2023-05-15T04:59:01.944Z,36.69
2023-05-15T05:00:01.962Z,36.72
2023-05-15T05:01:03.903Z,36.68
2023-05-15T05:02:02.149Z,36.67
2023-05-15T05:03:02.090Z,36.69
2023-05-15T05:04:02.026Z,36.69
2023-05-15T05:05:02.012Z,36.68
2023-05-15T05:06:02.070Z,36.68
2023-05-15T05:07:01.971Z,36.65
2023-05-15T05:08:01.960Z,36.71
2023-05-15T05:09:01.980Z,36.67
2023-05-15T05:10:01.971Z,36.67
2023-05-15T05:11:01.948Z,36.67
2023-05-15T05:12:01.936Z,36.71
2023-05-15T05:13:01.931Z,36.66
2023-05-15T05:14:01.923Z,36.67
2023-05-15T05:15:01.922Z,36.68
2023-05-15T05:16:01.993Z,36.67
2023-05-15T05:17:01.917Z,36.63
2023-05-15T05:18:02.007Z,36.66
2023-05-15T05:19:01.923Z,36.66
2023-05-15T05:20:01.886Z,36.65
2023-05-15T05:21:01.883Z,36.78
2023-05-15T05:22:02.072Z,36.73
2023-05-15T05:23:02.038Z,36.72
2023-05-15T05:24:02.075Z,36.71
2023-05-15T05:25:02.132Z,36.69
2023-05-15T05:26:04.123Z,36.72
2023-05-15T05:27:02.577Z,36.74
2023-05-15T05:28:02.182Z,36.72
2023-05-15T05:29:02.204Z,36.77
2023-05-15T05:30:02.173Z,36.80
2023-05-15T05:31:02.258Z,36.84
2023-05-15T05:32:02.690Z,36.82
2023-05-15T05:33:02.186Z,36.86
2023-05-15T05:34:02.133Z,36.90
2023-05-15T05:35:02.166Z,36.88
2023-05-15T05:36:02.141Z,36.91
2023-05-15T05:37:02.585Z,36.94
2023-05-15T05:38:02.118Z,36.96
2023-05-15T05:39:02.583Z,37.03
2023-05-15T05:40:02.100Z,37.00
2023-05-15T05:41:03.096Z,37.03
2023-05-15T05:42:02.577Z,37.03
2023-05-15T05:43:02.075Z,37.07
2023-05-15T05:44:02.064Z,37.13
2023-05-15T05:45:02.093Z,37.12
2023-05-15T05:46:02.165Z,37.12
2023-05-15T05:47:03.625Z,37.12
2023-05-15T05:48:02.294Z,37.13
2023-05-15T05:49:02.303Z,37.20
2023-05-15T05:50:02.505Z,37.23
2023-05-15T05:51:02.425Z,37.20
2023-05-15T05:52:02.581Z,37.22
2023-05-15T05:53:02.537Z,37.41
2023-05-15T05:54:02.593Z,37.66
2023-05-15T05:55:02.661Z,37.98
2023-05-15T05:56:02.715Z,38.36
2023-05-15T05:57:06.279Z,38.39
2023-05-15T05:58:18.318Z,38.29
2023-05-15T05:59:18.403Z,38.47
2023-05-15T06:00:02.768Z,38.59
2023-05-15T06:02:10.210Z,39.07
2023-05-15T06:05:11.153Z,38.86
2023-05-15T06:06:02.730Z,38.65
2023-05-15T06:07:03.698Z,38.79
2023-05-15T06:09:10.083Z,38.67
2023-05-15T06:10:05.881Z,38.74
2023-05-15T06:11:05.873Z,38.91
2023-05-15T06:12:03.374Z,38.89
2023-05-15T06:13:02.667Z,38.69
2023-05-15T06:14:10.058Z,38.74
2023-05-15T06:15:02.666Z,38.91
2023-05-15T06:16:03.748Z,39.01
2023-05-15T06:17:03.231Z,38.81
2023-05-15T06:18:02.714Z,38.85
2023-05-15T06:19:02.776Z,38.94
2023-05-15T06:20:02.607Z,38.87
2023-05-15T06:21:02.671Z,38.88
2023-05-15T06:22:03.103Z,39.02
2023-05-15T06:23:03.093Z,39.14
2023-05-15T06:24:02.712Z,39.22
2023-05-15T06:25:02.786Z,39.05
2023-05-15T06:26:02.856Z,39.14
2023-05-15T06:27:03.088Z,39.10
2023-05-15T06:28:02.999Z,39.09
2023-05-15T06:29:03.041Z,39.05
2023-05-15T06:30:03.143Z,39.16
2023-05-15T06:31:03.271Z,39.16
2023-05-15T06:32:03.604Z,39.14
2023-05-15T06:33:03.636Z,39.31
2023-05-15T06:34:03.335Z,39.22
2023-05-15T06:35:03.391Z,39.21
2023-05-15T06:36:03.444Z,39.21
2023-05-15T06:37:03.670Z,39.35
2023-05-15T06:38:03.580Z,39.36
2023-05-15T06:39:03.616Z,39.37
2023-05-15T06:40:03.681Z,39.29
2023-05-15T06:41:04.096Z,39.28
2023-05-15T06:42:07.312Z,39.33
2023-05-15T06:43:04.124Z,39.26
2023-05-15T06:44:03.791Z,39.37
2023-05-15T06:45:03.815Z,39.33
2023-05-15T06:46:03.919Z,39.38
2023-05-15T06:47:05.156Z,39.51
2023-05-15T06:48:03.823Z,39.41
2023-05-15T06:49:03.847Z,39.34
2023-05-15T06:50:11.298Z,39.45
2023-05-15T06:51:03.925Z,39.38
2023-05-15T06:52:04.104Z,39.33
2023-05-15T06:53:04.020Z,39.34
2023-05-15T06:54:04.104Z,39.41
2023-05-15T06:55:03.872Z,39.44
2023-05-15T06:56:03.877Z,39.39
2023-05-15T06:57:04.109Z,39.38
2023-05-15T06:58:03.853Z,39.41
2023-05-15T06:59:03.852Z,39.39
2023-05-15T07:00:03.843Z,39.36
2023-05-15T07:01:03.865Z,39.38
2023-05-15T07:02:04.184Z,39.39
2023-05-15T07:03:03.918Z,39.35
2023-05-15T07:04:03.834Z,39.33
2023-05-15T07:05:03.972Z,39.32
2023-05-15T07:06:04.107Z,39.38
2023-05-15T07:07:03.817Z,39.38
2023-05-15T07:08:03.803Z,39.39
2023-05-15T07:09:04.835Z,39.36
2023-05-15T07:10:03.770Z,39.33
2023-05-15T07:11:04.122Z,39.31
2023-05-15T07:12:03.752Z,39.31
2023-05-15T07:13:03.817Z,39.32
2023-05-15T07:14:03.872Z,39.38
2023-05-15T07:15:03.934Z,39.36
2023-05-15T07:16:04.112Z,39.43
2023-05-15T07:17:04.076Z,39.39
2023-05-15T07:18:04.204Z,39.35
2023-05-15T07:19:04.330Z,39.36
2023-05-15T07:20:04.238Z,39.34
2023-05-15T07:21:04.615Z,39.36
2023-05-15T07:22:04.359Z,39.33
2023-05-15T07:23:04.622Z,39.39
2023-05-15T07:24:04.490Z,39.32
2023-05-15T07:25:07.842Z,39.39
2023-05-15T07:26:05.546Z,39.36
2023-05-15T07:27:04.521Z,39.37
2023-05-15T07:28:04.716Z,39.33
2023-05-15T07:29:04.616Z,39.34
2023-05-15T07:30:04.588Z,39.34
2023-05-15T07:31:05.953Z,39.33
2023-05-15T07:32:04.879Z,39.32
2023-05-15T07:33:12.000Z,39.32
2023-05-15T07:34:04.617Z,39.36
2023-05-15T07:35:37.459Z,39.34
2023-05-15T07:36:12.059Z,39.36
2023-05-15T07:37:07.800Z,39.40
2023-05-15T07:38:04.595Z,39.36
2023-05-15T07:39:36.779Z,39.74
2023-05-15T07:40:04.605Z,39.55
2023-05-15T07:41:04.801Z,39.75
2023-05-15T07:42:04.623Z,40.28
2023-05-15T07:43:05.188Z,39.92
2023-05-15T07:44:04.581Z,39.83
2023-05-15T07:45:04.560Z,39.92
2023-05-15T07:46:05.659Z,40.00
2023-05-15T07:47:04.646Z,39.92
2023-05-15T07:48:04.668Z,39.98
2023-05-15T07:49:04.532Z,40.05
2023-05-15T07:50:04.496Z,40.23
2023-05-15T07:51:04.477Z,40.45
2023-05-15T07:52:04.478Z,40.26
2023-05-15T07:53:07.877Z,40.34
2023-05-15T07:54:11.866Z,40.43
2023-05-15T07:55:04.478Z,40.55
2023-05-15T07:56:04.472Z,40.72
2023-05-15T07:57:04.697Z,40.71
2023-05-15T07:58:04.627Z,40.69
2023-05-15T07:59:04.499Z,40.97
2023-05-15T08:00:04.438Z,40.98
2023-05-15T08:01:04.427Z,41.01
2023-05-15T08:02:05.459Z,41.01
2023-05-15T08:03:04.765Z,41.07
2023-05-15T08:04:04.522Z,41.14
2023-05-15T08:05:05.397Z,41.20
2023-05-15T08:06:05.384Z,41.31
2023-05-15T08:07:04.376Z,41.35
2023-05-15T08:08:04.644Z,41.50
2023-05-15T08:09:04.363Z,41.53
2023-05-15T08:10:04.364Z,41.65
2023-05-15T08:11:04.367Z,41.61
2023-05-15T08:12:04.334Z,41.73
2023-05-15T08:13:04.771Z,41.64
2023-05-15T08:14:04.373Z,41.77
2023-05-15T08:15:04.374Z,41.88
2023-05-15T08:16:04.326Z,41.97
2023-05-15T08:17:04.380Z,41.97
2023-05-15T08:18:04.674Z,42.03
2023-05-15T08:19:04.515Z,42.25
2023-05-15T08:20:05.548Z,42.27
2023-05-15T08:21:07.824Z,42.44
2023-05-15T08:22:04.599Z,42.45
2023-05-15T08:23:04.596Z,42.45
2023-05-15T08:24:04.616Z,42.59
2023-05-15T08:25:04.601Z,42.70
2023-05-15T08:26:05.564Z,42.77
2023-05-15T08:27:04.570Z,42.90
2023-05-15T08:28:04.667Z,42.95
2023-05-15T08:29:05.587Z,42.99
2023-05-15T08:30:07.834Z,43.11
2023-05-15T08:31:04.663Z,43.21
2023-05-15T08:32:04.620Z,43.30
2023-05-15T08:33:04.793Z,43.30
2023-05-15T08:34:04.587Z,43.39
2023-05-15T08:35:04.634Z,43.45
2023-05-15T08:36:04.647Z,43.53
2023-05-15T08:37:04.568Z,43.57
2023-05-15T08:38:04.555Z,43.68
2023-05-15T08:39:04.658Z,43.69
2023-05-15T08:40:04.655Z,43.66
2023-05-15T08:41:04.531Z,43.71
2023-05-15T08:42:04.538Z,43.90
2023-05-15T08:43:11.904Z,43.80
2023-05-15T08:44:20.204Z,43.88
2023-05-15T08:45:12.032Z,44.06
2023-05-15T08:46:11.930Z,44.17
2023-05-15T08:47:04.628Z,44.16
2023-05-15T08:50:05.478Z,44.54
2023-05-15T08:51:07.672Z,44.63
2023-05-15T08:52:04.456Z,44.75
2023-05-15T08:53:04.643Z,44.76
2023-05-15T08:54:04.440Z,44.98
2023-05-15T08:55:04.457Z,45.01
2023-05-15T08:56:04.458Z,45.22
2023-05-15T08:57:05.430Z,45.30
2023-05-15T08:58:04.653Z,45.38
2023-05-15T08:59:04.430Z,45.45
2023-05-15T09:00:05.059Z,45.40
2023-05-15T09:01:04.629Z,45.53
2023-05-15T09:02:05.418Z,45.57
2023-05-15T09:03:05.236Z,45.51
2023-05-15T09:04:04.805Z,45.71
2023-05-15T09:05:05.158Z,45.64
2023-05-15T09:06:04.845Z,45.77
2023-05-15T09:07:04.886Z,46.01
2023-05-15T09:08:04.934Z,46.00
2023-05-15T09:09:04.963Z,46.10
2023-05-15T09:10:05.158Z,46.14
2023-05-15T09:11:05.023Z,46.19
2023-05-15T09:12:05.069Z,46.15
2023-05-15T09:13:05.118Z,46.29
2023-05-15T09:14:05.151Z,46.29
2023-05-15T09:15:05.658Z,46.29
2023-05-15T09:16:05.301Z,46.26
2023-05-15T09:17:05.346Z,46.38
2023-05-15T09:18:05.372Z,46.44
2023-05-15T09:19:05.403Z,46.61
2023-05-15T09:20:05.656Z,46.66
2023-05-15T09:21:05.464Z,46.65
2023-05-15T09:22:06.022Z,46.71
2023-05-15T09:23:05.667Z,46.83
2023-05-15T09:24:05.590Z,46.92
2023-05-15T09:25:06.203Z,46.97
2023-05-15T09:26:06.267Z,46.89
2023-05-15T09:27:05.719Z,46.99
2023-05-15T09:28:05.760Z,46.71
2023-05-15T09:29:05.804Z,46.40
2023-05-15T09:30:05.851Z,46.39
2023-05-15T09:31:06.165Z,46.19
2023-05-15T09:32:06.128Z,46.01
2023-05-15T09:33:06.083Z,45.76
2023-05-15T09:34:09.417Z,45.49
2023-05-15T09:35:07.045Z,45.32
2023-05-15T09:36:06.046Z,45.27
2023-05-15T09:37:06.054Z,45.16
2023-05-15T09:38:06.169Z,45.10
2023-05-15T09:39:06.044Z,45.09
2023-05-15T09:40:06.008Z,45.19
2023-05-15T09:41:06.043Z,45.18
2023-05-15T09:42:06.063Z,45.27
2023-05-15T09:43:06.470Z,45.26
2023-05-15T09:44:06.094Z,45.32
2023-05-15T09:45:06.076Z,45.25
2023-05-15T09:46:09.536Z,45.51
2023-05-15T09:47:06.229Z,45.50
2023-05-15T09:48:06.362Z,45.53
2023-05-15T09:49:07.101Z,45.60
2023-05-15T09:50:06.136Z,45.57
2023-05-15T09:51:06.089Z,45.59
2023-05-15T09:52:06.085Z,45.57
2023-05-15T09:53:09.320Z,45.65
2023-05-15T09:54:06.112Z,45.74
2023-05-15T09:55:06.077Z,45.75
2023-05-15T09:56:06.166Z,45.74
2023-05-15T09:57:06.079Z,45.76
2023-05-15T09:58:06.229Z,45.73
2023-05-15T09:59:06.035Z,45.75
2023-05-15T10:00:06.038Z,45.83
2023-05-15T10:01:06.091Z,45.82
2023-05-15T10:02:06.013Z,45.85
2023-05-15T10:03:06.070Z,45.85
2023-05-15T10:04:06.037Z,45.96
2023-05-15T10:05:06.012Z,45.99
2023-05-15T10:06:06.044Z,45.96
2023-05-15T10:07:05.975Z,45.99
2023-05-15T10:08:05.968Z,46.03
2023-05-15T10:09:05.963Z,46.08
2023-05-15T10:10:05.969Z,46.19
2023-05-15T10:11:06.175Z,46.13
2023-05-15T10:12:05.940Z,46.12
2023-05-15T10:13:06.198Z,46.21
2023-05-15T10:14:05.929Z,46.29
2023-05-15T10:15:05.960Z,46.29
2023-05-15T10:16:06.096Z,46.29
2023-05-15T10:17:06.059Z,46.32
2023-05-15T10:18:06.263Z,46.36
2023-05-15T10:19:06.211Z,46.31
2023-05-15T10:20:06.254Z,46.39
2023-05-15T10:21:06.271Z,46.27
2023-05-15T10:22:06.316Z,46.21
2023-05-15T10:23:06.762Z,46.13
2023-05-15T10:24:06.678Z,46.08
2023-05-15T10:25:06.515Z,45.96
2023-05-15T10:26:06.560Z,45.88
2023-05-15T10:27:06.655Z,45.80
2023-05-15T10:28:06.677Z,45.75
2023-05-15T10:29:07.181Z,45.67
2023-05-15T10:30:06.811Z,45.63
2023-05-15T10:31:07.225Z,45.58
2023-05-15T10:32:07.521Z,45.52
2023-05-15T10:33:07.040Z,45.51
2023-05-15T10:34:07.044Z,45.48
2023-05-15T10:35:07.109Z,45.45
2023-05-15T10:36:07.199Z,45.45
2023-05-15T10:37:07.214Z,45.42
2023-05-15T10:38:07.260Z,45.43
2023-05-15T10:39:07.344Z,45.45
2023-05-15T10:40:07.361Z,45.38
2023-05-15T10:41:16.641Z,44.82
2023-05-15T10:42:07.686Z,43.02
2023-05-15T10:43:07.370Z,41.78
2023-05-15T10:44:07.705Z,41.22
2023-05-15T10:45:07.408Z,40.82
2023-05-15T10:46:07.360Z,40.82
2023-05-15T10:47:07.407Z,40.17
2023-05-15T10:48:07.397Z,40.14
2023-05-15T10:49:07.695Z,40.28
2023-05-15T10:50:07.330Z,40.37
2023-05-15T10:51:07.641Z,40.24
2023-05-15T10:52:07.324Z,40.27
2023-05-15T10:53:07.297Z,40.45
2023-05-15T10:54:08.033Z,40.29
2023-05-15T10:55:07.285Z,40.28
2023-05-15T10:56:07.716Z,40.36
2023-05-15T10:57:07.270Z,40.09
2023-05-15T10:58:07.265Z,40.08
2023-05-15T10:59:07.264Z,40.21
2023-05-15T11:00:07.282Z,40.57
2023-05-15T11:01:07.780Z,40.80
2023-05-15T11:02:07.307Z,40.82
2023-05-15T11:03:07.383Z,40.97
2023-05-15T11:04:07.732Z,41.04
2023-05-15T11:05:07.491Z,41.13
2023-05-15T11:06:07.533Z,41.13
2023-05-15T11:07:07.604Z,41.12
2023-05-15T11:08:07.667Z,41.15
2023-05-15T11:09:08.192Z,41.16
2023-05-15T11:10:07.738Z,41.16
2023-05-15T11:11:07.862Z,41.09
2023-05-15T11:12:07.821Z,41.04
2023-05-15T11:13:07.865Z,41.03
2023-05-15T11:14:08.197Z,41.01
2023-05-15T11:15:07.928Z,40.99
2023-05-15T11:16:07.959Z,40.98
2023-05-15T11:17:08.218Z,41.08
2023-05-15T11:18:08.046Z,41.08
2023-05-15T11:19:08.234Z,41.11
2023-05-15T11:20:09.033Z,41.18
2023-05-15T11:21:08.218Z,41.21
2023-05-15T11:22:08.067Z,41.15
2023-05-15T11:23:08.056Z,41.09
2023-05-15T11:24:08.112Z,41.09
2023-05-15T11:25:08.071Z,41.17
2023-05-15T11:26:08.224Z,41.21
2023-05-15T11:27:08.094Z,41.55
2023-05-15T11:28:08.081Z,41.52
2023-05-15T11:29:08.202Z,41.91
2023-05-15T11:30:08.093Z,41.74
2023-05-15T11:31:11.405Z,41.97
2023-05-15T11:32:08.094Z,41.97
2023-05-15T11:33:08.162Z,41.95
2023-05-15T11:34:08.478Z,41.91
2023-05-15T11:35:08.417Z,41.85
2023-05-15T11:36:08.059Z,41.80
2023-05-15T11:37:08.208Z,41.80
2023-05-15T11:38:08.046Z,41.76
2023-05-15T11:39:08.202Z,41.75
2023-05-15T11:40:08.092Z,41.75
2023-05-15T11:41:08.025Z,41.78
2023-05-15T11:42:08.205Z,41.72
2023-05-15T11:43:08.013Z,41.75
2023-05-15T11:44:08.211Z,41.72
2023-05-15T11:45:07.995Z,41.72
2023-05-15T11:46:08.086Z,41.79
2023-05-15T11:47:08.008Z,41.77
2023-05-15T11:48:08.057Z,41.81
2023-05-15T11:49:08.202Z,41.84
2023-05-15T11:50:07.963Z,41.91
2023-05-15T11:51:07.953Z,41.93
2023-05-15T11:52:07.956Z,41.95
2023-05-15T11:53:07.945Z,42.03
2023-05-15T11:54:08.207Z,42.04
2023-05-15T11:55:07.983Z,42.07
2023-05-15T11:56:08.157Z,42.12
2023-05-15T11:57:08.065Z,42.07
2023-05-15T11:58:08.113Z,42.09
2023-05-15T11:59:08.139Z,42.11
2023-05-15T12:00:08.176Z,42.14
2023-05-15T12:01:10.312Z,42.12
2023-05-15T12:02:08.200Z,42.12
2023-05-15T12:03:09.222Z,42.16
2023-05-15T12:04:08.331Z,42.17
2023-05-15T12:05:08.260Z,42.16
2023-05-15T12:06:08.199Z,42.16
2023-05-15T12:07:08.161Z,42.17
2023-05-15T12:08:08.149Z,42.17
2023-05-15T12:09:08.218Z,42.16
2023-05-15T12:10:08.140Z,42.19
2023-05-15T12:11:08.144Z,42.18
2023-05-15T12:12:08.180Z,42.21
2023-05-15T12:13:08.194Z,42.22
2023-05-15T12:14:08.715Z,42.20
2023-05-15T12:15:08.280Z,42.25
2023-05-15T12:16:08.350Z,42.24
2023-05-15T12:17:08.369Z,42.22
2023-05-15T12:18:08.421Z,42.25
2023-05-15T12:19:08.786Z,42.20
2023-05-15T12:20:08.502Z,42.22
2023-05-15T12:21:08.546Z,42.15
2023-05-15T12:22:08.615Z,42.10
2023-05-15T12:23:08.637Z,42.08
2023-05-15T12:24:11.932Z,42.03
2023-05-15T12:25:08.728Z,42.07
2023-05-15T12:26:08.665Z,42.02
2023-05-15T12:27:09.184Z,41.94
2023-05-15T12:28:08.675Z,41.97
2023-05-15T12:29:08.732Z,41.93
2023-05-15T12:30:08.661Z,41.87
2023-05-15T12:31:08.643Z,41.88
2023-05-15T12:32:08.716Z,41.89
2023-05-15T12:33:08.748Z,41.85
2023-05-15T12:34:08.601Z,41.91
2023-05-15T12:35:08.606Z,41.89
2023-05-15T12:36:08.602Z,41.88
2023-05-15T12:37:08.584Z,41.87
2023-05-15T12:38:08.570Z,41.90
2023-05-15T12:39:08.570Z,41.93
2023-05-15T12:40:08.590Z,41.99
2023-05-15T12:41:08.555Z,41.98
2023-05-15T12:42:08.552Z,42.02
2023-05-15T12:43:08.555Z,42.05
2023-05-15T12:44:08.552Z,42.08
2023-05-15T12:45:08.731Z,42.07
2023-05-15T12:46:08.620Z,42.00
2023-05-15T12:47:09.651Z,42.05
2023-05-15T12:48:08.758Z,42.00
2023-05-15T12:49:08.771Z,41.94
2023-05-15T12:50:10.247Z,41.95
2023-05-15T12:51:08.930Z,41.91
2023-05-15T12:52:08.923Z,41.93
2023-05-15T12:53:08.966Z,41.91
2023-05-15T12:54:09.238Z,41.84
2023-05-15T12:55:09.567Z,41.83
2023-05-15T12:56:09.166Z,41.81
2023-05-15T12:57:09.147Z,41.74
2023-05-15T12:58:09.186Z,41.73
2023-05-15T12:59:09.222Z,41.70